Time,TemperatureF,DewpointF,PressureIn,WindDirection,WindDirectionDegrees,WindSpeedMPH,WindSpeedGustMPH,Humidity,HourlyPrecipIn,Conditions,Clouds,dailyrainin,SoftwareType,DateUTC
2013-05-05 00:01:00,66.0,32.9,29.98,NE,52,2.0,5.0,29,0.00,,,0.00,VWS V14.01,2013-05-05 05:01:00,
2013-05-05 00:06:00,65.5,33.3,29.98,SSE,151,3.0,4.0,30,0.00,,,0.00,VWS V14.01,2013-05-05 05:06:00,
2013-05-05 00:11:00,63.5,34.7,29.98,South,184,3.0,4.0,34,0.00,,,0.00,VWS V14.01,2013-05-05 05:11:00,
2013-05-05 00:16:00,62.0,36.1,29.98,South,181,2.0,3.0,38,0.00,,,0.00,VWS V14.01,2013-05-05 05:16:00,
2013-05-05 00:21:00,61.1,35.3,29.99,SSE,151,1.0,1.0,38,0.00,,,0.00,VWS V14.01,2013-05-05 05:21:00,
2013-05-05 00:26:00,60.9,34.5,29.99,SSE,158,0.0,0.0,37,0.00,,,0.00,VWS V14.01,2013-05-05 05:26:00,
2013-05-05 00:31:00,60.6,34.9,29.99,SSE,158,0.0,0.0,38,0.00,,,0.00,VWS V14.01,2013-05-05 05:31:00,
2013-05-05 00:36:00,60.0,33.7,29.99,SSE,158,0.0,1.0,37,0.00,,,0.00,VWS V14.01,2013-05-05 05:36:00,
2013-05-05 00:41:00,59.3,33.7,29.99,SSE,158,0.0,0.0,38,0.00,,,0.00,VWS V14.01,2013-05-05 05:41:00,
2013-05-05 00:46:00,59.0,34.7,29.99,North,355,0.0,0.0,40,0.00,,,0.00,VWS V14.01,2013-05-05 05:46:00,
2013-05-05 00:51:00,58.3,34.1,29.99,North,355,1.0,1.0,40,0.00,,,0.00,VWS V14.01,2013-05-05 05:51:00,
2013-05-05 00:56:00,57.5,34.0,29.99,North,355,1.0,1.0,41,0.00,,,0.00,VWS V14.01,2013-05-05 05:56:00,
2013-05-05 01:00:00,56.8,34.0,29.99,North,355,0.0,0.0,42,0.00,,,0.00,VWS V14.01,2013-05-05 06:00:00,
2013-05-05 01:05:00,55.6,35.2,29.99,North,355,0.0,0.0,46,0.00,,,0.00,VWS V14.01,2013-05-05 06:05:00,
2013-05-05 01:10:00,54.8,35.0,29.99,North,356,0.0,0.0,47,0.00,,,0.00,VWS V14.01,2013-05-05 06:10:00,
2013-05-05 01:15:00,54.3,35.6,29.99,North,355,0.0,0.0,49,0.00,,,0.00,VWS V14.01,2013-05-05 06:15:00,
2013-05-05 01:20:00,53.7,35.0,30.00,North,356,0.0,0.0,49,0.00,,,0.00,VWS V14.01,2013-05-05 06:20:00,
2013-05-05 01:25:00,52.9,35.3,29.99,North,355,0.0,0.0,51,0.00,,,0.00,VWS V14.01,2013-05-05 06:25:00,
2013-05-05 01:30:00,52.5,35.4,29.99,North,356,0.0,0.0,52,0.00,,,0.00,VWS V14.01,2013-05-05 06:30:00,
2013-05-05 01:35:00,52.6,35.5,29.99,North,355,0.0,0.0,52,0.00,,,0.00,VWS V14.01,2013-05-05 06:35:00,
2013-05-05 01:40:00,52.4,35.3,29.99,North,356,0.0,0.0,52,0.00,,,0.00,VWS V14.01,2013-05-05 06:40:00,
2013-05-05 01:45:00,51.9,34.8,29.99,North,355,0.0,0.0,52,0.00,,,0.00,VWS V14.01,2013-05-05 06:45:00,
2013-05-05 01:50:00,51.2,35.1,30.00,North,356,0.0,0.0,54,0.00,,,0.00,VWS V14.01,2013-05-05 06:50:00,
2013-05-05 01:55:00,51.4,35.8,30.00,North,355,1.0,1.0,55,0.00,,,0.00,VWS V14.01,2013-05-05 06:55:00,
2013-05-05 02:00:00,51.6,37.3,30.00,North,355,0.0,0.0,58,0.00,,,0.00,VWS V14.01,2013-05-05 07:00:00,
2013-05-05 02:05:00,51.4,37.1,30.00,North,355,0.0,0.0,58,0.00,,,0.00,VWS V14.01,2013-05-05 07:05:00,
2013-05-05 02:10:00,50.9,37.1,30.00,North,355,0.0,0.0,59,0.00,,,0.00,VWS V14.01,2013-05-05 07:10:00,
2013-05-05 02:15:00,50.5,36.3,30.00,North,356,0.0,0.0,58,0.00,,,0.00,VWS V14.01,2013-05-05 07:15:00,
2013-05-05 02:20:00,50.3,36.5,30.00,North,355,0.0,0.0,59,0.00,,,0.00,VWS V14.01,2013-05-05 07:20:00,
2013-05-05 02:25:00,49.9,35.3,30.00,North,355,0.0,0.0,57,0.00,,,0.00,VWS V14.01,2013-05-05 07:25:00,
2013-05-05 02:30:00,49.5,34.9,30.00,North,355,0.0,0.0,57,0.00,,,0.00,VWS V14.01,2013-05-05 07:30:00,
2013-05-05 02:35:00,49.1,35.8,30.00,North,355,0.0,0.0,60,0.00,,,0.00,VWS V14.01,2013-05-05 07:35:00,
2013-05-05 02:40:00,48.8,36.0,30.00,North,355,0.0,0.0,61,0.00,,,0.00,VWS V14.01,2013-05-05 07:40:00,
2013-05-05 02:45:00,48.5,36.1,30.00,North,356,0.0,0.0,62,0.00,,,0.00,VWS V14.01,2013-05-05 07:45:00,
2013-05-05 02:50:00,48.1,36.5,30.00,North,355,0.0,0.0,64,0.00,,,0.00,VWS V14.01,2013-05-05 07:50:00,
2013-05-05 02:55:00,48.4,36.8,30.00,North,355,0.0,0.0,64,0.00,,,0.00,VWS V14.01,2013-05-05 07:55:00,
2013-05-05 03:00:00,48.5,37.3,30.00,North,355,0.0,0.0,65,0.00,,,0.00,VWS V14.01,2013-05-05 08:00:00,
2013-05-05 03:05:00,48.1,36.9,30.00,North,355,0.0,0.0,65,0.00,,,0.00,VWS V14.01,2013-05-05 08:05:00,
2013-05-05 03:10:00,47.9,37.5,30.00,North,356,0.0,0.0,67,0.00,,,0.00,VWS V14.01,2013-05-05 08:10:00,
2013-05-05 03:15:00,48.1,36.9,30.00,North,355,0.0,0.0,65,0.00,,,0.00,VWS V14.01,2013-05-05 08:15:00,
2013-05-05 03:20:00,48.4,36.8,30.00,North,355,0.0,0.0,64,0.00,,,0.00,VWS V14.01,2013-05-05 08:20:00,
2013-05-05 03:25:00,48.5,36.9,30.00,North,355,0.0,1.0,64,0.00,,,0.00,VWS V14.01,2013-05-05 08:25:00,
2013-05-05 03:30:00,51.6,36.4,30.00,NE,35,2.0,2.0,56,0.00,,,0.00,VWS V14.01,2013-05-05 08:30:00,
2013-05-05 03:35:00,54.5,34.7,30.00,NNE,26,6.0,7.0,47,0.00,,,0.00,VWS V14.01,2013-05-05 08:35:00,
2013-05-05 03:40:00,56.0,34.4,30.00,NNE,33,7.0,7.0,44,0.00,,,0.00,VWS V14.01,2013-05-05 08:40:00,
2013-05-05 03:45:00,56.3,34.7,30.00,NNE,24,3.0,5.0,44,0.00,,,0.00,VWS V14.01,2013-05-05 08:45:00,
2013-05-05 03:50:00,56.3,34.7,30.01,North,11,1.0,3.0,44,0.00,,,0.00,VWS V14.01,2013-05-05 08:50:00,
2013-05-05 03:55:00,56.1,34.5,30.01,NNE,26,2.0,3.0,44,0.00,,,0.00,VWS V14.01,2013-05-05 08:55:00,
2013-05-05 04:00:00,55.9,34.3,30.02,NNE,28,3.0,3.0,44,0.00,,,0.00,VWS V14.01,2013-05-05 09:00:00,
2013-05-05 04:05:00,55.7,34.7,30.02,ENE,72,3.0,3.0,45,0.00,,,0.00,VWS V14.01,2013-05-05 09:05:00,
2013-05-05 04:10:00,55.3,34.9,30.02,NE,45,5.0,6.0,46,0.00,,,0.00,VWS V14.01,2013-05-05 09:10:00,
2013-05-05 04:15:00,54.9,35.1,30.02,NNE,33,4.0,5.0,47,0.00,,,0.00,VWS V14.01,2013-05-05 09:15:00,
2013-05-05 04:20:00,54.7,34.9,30.02,NE,42,3.0,3.0,47,0.00,,,0.00,VWS V14.01,2013-05-05 09:20:00,
2013-05-05 04:25:00,54.3,35.0,30.03,NE,46,2.0,2.0,48,0.00,,,0.00,VWS V14.01,2013-05-05 09:25:00,
2013-05-05 04:30:00,53.8,35.1,30.03,NNE,20,5.0,6.0,49,0.00,,,0.00,VWS V14.01,2013-05-05 09:30:00,
2013-05-05 04:35:00,53.6,35.4,30.03,NE,53,7.0,7.0,50,0.00,,,0.00,VWS V14.01,2013-05-05 09:35:00,
2013-05-05 04:40:00,53.4,35.7,30.03,NE,40,4.0,4.0,51,0.00,,,0.00,VWS V14.01,2013-05-05 09:40:00,
2013-05-05 04:45:00,53.0,35.4,30.03,NE,54,2.0,2.0,51,0.00,,,0.00,VWS V14.01,2013-05-05 09:45:00,
2013-05-05 04:50:00,52.6,35.5,30.04,NE,41,0.0,0.0,52,0.00,,,0.00,VWS V14.01,2013-05-05 09:50:00,
2013-05-05 04:55:00,52.2,35.6,30.04,NE,40,0.0,0.0,53,0.00,,,0.00,VWS V14.01,2013-05-05 09:55:00,
2013-05-05 05:00:00,52.0,35.4,30.04,NNE,22,2.0,3.0,53,0.00,,,0.00,VWS V14.01,2013-05-05 10:00:00,
2013-05-05 05:05:00,52.1,36.0,30.04,NE,45,1.0,3.0,54,0.00,,,0.00,VWS V14.01,2013-05-05 10:05:00,
2013-05-05 05:10:00,51.7,35.6,30.04,East,87,1.0,1.0,54,0.00,,,0.00,VWS V14.01,2013-05-05 10:10:00,
2013-05-05 05:15:00,51.0,35.4,30.04,NE,41,2.0,2.0,55,0.00,,,0.00,VWS V14.01,2013-05-05 10:15:00,
2013-05-05 05:20:00,50.8,35.7,30.04,ENE,64,0.0,3.0,56,0.00,,,0.00,VWS V14.01,2013-05-05 10:20:00,
2013-05-05 05:25:00,50.4,35.8,30.04,ENE,64,0.0,0.0,57,0.00,,,0.00,VWS V14.01,2013-05-05 10:25:00,
2013-05-05 05:30:00,49.9,35.3,30.05,ENE,64,0.0,0.0,57,0.00,,,0.00,VWS V14.01,2013-05-05 10:30:00,
2013-05-05 05:35:00,49.3,35.6,30.05,NE,40,0.0,0.0,59,0.00,,,0.00,VWS V14.01,2013-05-05 10:35:00,
2013-05-05 05:40:00,48.7,35.5,30.05,NE,53,0.0,1.0,60,0.00,,,0.00,VWS V14.01,2013-05-05 10:40:00,
2013-05-05 05:45:00,48.3,35.9,30.05,ENE,71,0.0,2.0,62,0.00,,,0.00,VWS V14.01,2013-05-05 10:45:00,
2013-05-05 05:50:00,48.3,35.9,30.05,ENE,62,0.0,0.0,62,0.00,,,0.00,VWS V14.01,2013-05-05 10:50:00,
2013-05-05 05:55:00,48.2,35.8,30.05,North,5,0.0,0.0,62,0.00,,,0.00,VWS V14.01,2013-05-05 10:55:00,
2013-05-05 06:00:00,48.1,36.1,30.06,North,11,0.0,1.0,63,0.00,,,0.00,VWS V14.01,2013-05-05 11:00:00,
2013-05-05 06:05:00,47.8,35.8,30.06,North,11,0.0,0.0,63,0.00,,,0.00,VWS V14.01,2013-05-05 11:05:00,
2013-05-05 06:10:00,47.2,35.7,30.06,North,11,0.0,0.0,64,0.00,,,0.00,VWS V14.01,2013-05-05 11:10:00,
2013-05-05 06:15:00,46.4,35.7,30.07,North,350,0.0,2.0,66,0.00,,,0.00,VWS V14.01,2013-05-05 11:15:00,
2013-05-05 06:20:00,46.0,35.3,30.07,North,350,1.0,2.0,66,0.00,,,0.00,VWS V14.01,2013-05-05 11:20:00,
2013-05-05 06:25:00,45.3,35.0,30.07,North,350,0.0,1.0,67,0.00,,,0.00,VWS V14.01,2013-05-05 11:25:00,
2013-05-05 06:30:00,44.8,35.6,30.07,North,350,1.0,1.0,70,0.00,,,0.00,VWS V14.01,2013-05-05 11:30:00,
2013-05-05 06:35:00,44.4,35.2,30.08,North,350,0.0,1.0,70,0.00,,,0.00,VWS V14.01,2013-05-05 11:35:00,
2013-05-05 06:40:00,44.5,35.7,30.08,North,350,0.0,1.0,71,0.00,,,0.00,VWS V14.01,2013-05-05 11:40:00,
2013-05-05 06:45:00,44.1,35.3,30.08,NNW,337,2.0,2.0,71,0.00,,,0.00,VWS V14.01,2013-05-05 11:45:00,
2013-05-05 06:50:00,44.4,35.6,30.08,NNW,338,0.0,2.0,71,0.00,,,0.00,VWS V14.01,2013-05-05 11:50:00,
2013-05-05 06:55:00,44.0,34.9,30.09,NNW,338,0.0,0.0,70,0.00,,,0.00,VWS V14.01,2013-05-05 11:55:00,
2013-05-05 07:00:00,43.4,35.0,30.09,NNW,338,0.0,0.0,72,0.00,,,0.00,VWS V14.01,2013-05-05 12:00:00,
2013-05-05 07:05:00,43.3,35.6,30.09,NNW,339,0.0,0.0,74,0.00,,,0.00,VWS V14.01,2013-05-05 12:05:00,
2013-05-05 07:10:00,43.6,35.9,30.09,NNW,338,0.0,0.0,74,0.00,,,0.00,VWS V14.01,2013-05-05 12:10:00,
2013-05-05 07:15:00,44.0,36.6,30.10,NNW,338,0.0,0.0,75,0.00,,,0.00,VWS V14.01,2013-05-05 12:15:00,
2013-05-05 07:20:00,45.1,37.7,30.10,NNW,339,0.0,0.0,75,0.00,,,0.00,VWS V14.01,2013-05-05 12:20:00,
2013-05-05 07:25:00,45.3,36.8,30.11,NNW,338,0.0,0.0,72,0.00,,,0.00,VWS V14.01,2013-05-05 12:25:00,
2013-05-05 07:30:00,45.7,37.5,30.11,NNW,338,0.0,0.0,73,0.00,,,0.00,VWS V14.01,2013-05-05 12:30:00,
2013-05-05 07:35:00,46.4,37.9,30.12,NNW,339,0.0,1.0,72,0.00,,,0.00,VWS V14.01,2013-05-05 12:35:00,
2013-05-05 07:40:00,47.5,38.6,30.12,NNW,339,0.0,1.0,71,0.00,,,0.00,VWS V14.01,2013-05-05 12:40:00,
2013-05-05 07:45:00,48.6,39.6,30.12,NNW,339,0.0,0.0,71,0.00,,,0.00,VWS V14.01,2013-05-05 12:45:00,
2013-05-05 07:49:00,50.0,39.9,30.12,NNW,339,0.0,1.0,68,0.00,,,0.00,VWS V14.01,2013-05-05 12:49:00,
2013-05-05 07:54:00,51.2,39.8,30.12,NNW,338,0.0,2.0,65,0.00,,,0.00,VWS V14.01,2013-05-05 12:54:00,
2013-05-05 07:59:00,52.0,39.4,30.13,NNW,339,2.0,2.0,62,0.00,,,0.00,VWS V14.01,2013-05-05 12:59:00,
2013-05-05 08:04:00,52.6,39.5,30.12,NNW,339,0.0,2.0,61,0.00,,,0.00,VWS V14.01,2013-05-05 13:04:00,
2013-05-05 08:09:00,53.1,38.7,30.13,NNW,338,0.0,4.0,58,0.00,,,0.00,VWS V14.01,2013-05-05 13:09:00,
2013-05-05 08:14:00,53.6,39.2,30.13,NNW,330,3.0,3.0,58,0.00,,,0.00,VWS V14.01,2013-05-05 13:14:00,
2013-05-05 08:19:00,54.0,39.1,30.13,North,358,6.0,7.0,57,0.00,,,0.00,VWS V14.01,2013-05-05 13:19:00,
2013-05-05 08:24:00,54.1,39.2,30.13,North,357,11.0,12.0,57,0.00,,,0.00,VWS V14.01,2013-05-05 13:24:00,
2013-05-05 08:29:00,54.2,38.9,30.13,NE,45,7.0,12.0,56,0.00,,,0.00,VWS V14.01,2013-05-05 13:29:00,
2013-05-05 08:34:00,54.3,39.0,30.13,NNE,13,6.0,12.0,56,0.00,,,0.00,VWS V14.01,2013-05-05 13:34:00,
2013-05-05 08:39:00,54.8,39.0,30.13,NNE,21,5.0,8.0,55,0.00,,,0.00,VWS V14.01,2013-05-05 13:39:00,
2013-05-05 08:44:00,55.0,39.2,30.14,NE,40,6.0,9.0,55,0.00,,,0.00,VWS V14.01,2013-05-05 13:44:00,
2013-05-05 08:49:00,55.4,39.5,30.14,NNE,22,5.0,8.0,55,0.00,,,0.00,VWS V14.01,2013-05-05 13:49:00,
2013-05-05 08:54:00,55.6,39.2,30.14,NNW,330,6.0,10.0,54,0.00,,,0.00,VWS V14.01,2013-05-05 13:54:00,
2013-05-05 08:59:00,55.7,39.3,30.14,North,360,4.0,10.0,54,0.00,,,0.00,VWS V14.01,2013-05-05 13:59:00,
2013-05-05 09:04:00,55.9,39.0,30.14,North,358,6.0,9.0,53,0.00,,,0.00,VWS V14.01,2013-05-05 14:04:00,
2013-05-05 09:09:00,56.2,39.3,30.14,North,351,7.0,11.0,53,0.00,,,0.00,VWS V14.01,2013-05-05 14:09:00,
2013-05-05 09:14:00,56.1,39.2,30.14,North,358,7.0,10.0,53,0.00,,,0.00,VWS V14.01,2013-05-05 14:14:00,
2013-05-05 09:19:00,56.5,39.6,30.14,North,357,4.0,11.0,53,0.00,,,0.00,VWS V14.01,2013-05-05 14:19:00,
2013-05-05 09:24:00,57.0,40.1,30.14,NNE,28,3.0,11.0,53,0.00,,,0.00,VWS V14.01,2013-05-05 14:24:00,
2013-05-05 09:29:00,57.7,40.2,30.14,NNE,30,5.0,8.0,52,0.00,,,0.00,VWS V14.01,2013-05-05 14:29:00,
2013-05-05 09:34:00,58.0,40.0,30.14,NNW,336,7.0,14.0,51,0.00,,,0.00,VWS V14.01,2013-05-05 14:34:00,
2013-05-05 09:39:00,58.2,40.7,30.14,NNW,343,5.0,10.0,52,0.00,,,0.00,VWS V14.01,2013-05-05 14:39:00,
2013-05-05 09:44:00,58.6,40.5,30.14,NNW,334,6.0,11.0,51,0.00,,,0.00,VWS V14.01,2013-05-05 14:44:00,
2013-05-05 09:49:00,59.1,41.0,30.15,North,352,9.0,11.0,51,0.00,,,0.00,VWS V14.01,2013-05-05 14:49:00,
2013-05-05 09:54:00,59.4,40.8,30.14,NNW,348,7.0,15.0,50,0.00,,,0.00,VWS V14.01,2013-05-05 14:54:00,
2013-05-05 09:59:00,59.2,41.6,30.14,North,349,8.0,13.0,52,0.00,,,0.00,VWS V14.01,2013-05-05 14:59:00,
2013-05-05 10:04:00,60.0,41.3,30.14,NNE,19,8.0,13.0,50,0.00,,,0.00,VWS V14.01,2013-05-05 15:04:00,
2013-05-05 10:09:00,59.6,41.5,30.14,NNE,22,5.0,12.0,51,0.00,,,0.00,VWS V14.01,2013-05-05 15:09:00,
2013-05-05 10:14:00,59.6,41.5,30.14,NNW,337,10.0,13.0,51,0.00,,,0.00,VWS V14.01,2013-05-05 15:14:00,
2013-05-05 10:19:00,60.2,42.0,30.14,NNW,329,10.0,13.0,51,0.00,,,0.00,VWS V14.01,2013-05-05 15:19:00,
2013-05-05 10:24:00,60.4,41.7,30.14,WNW,303,6.0,15.0,50,0.00,,,0.00,VWS V14.01,2013-05-05 15:24:00,
2013-05-05 10:29:00,61.1,42.3,30.14,North,355,7.0,15.0,50,0.00,,,0.00,VWS V14.01,2013-05-05 15:29:00,
2013-05-05 10:34:00,61.3,42.0,30.14,North,352,11.0,13.0,49,0.00,,,0.00,VWS V14.01,2013-05-05 15:34:00,
2013-05-05 10:39:00,61.4,42.1,30.14,North,349,13.0,17.0,49,0.00,,,0.00,VWS V14.01,2013-05-05 15:39:00,
2013-05-05 10:44:00,61.5,42.2,30.14,NNW,331,1.0,13.0,49,0.00,,,0.00,VWS V14.01,2013-05-05 15:44:00,
2013-05-05 10:49:00,62.0,42.1,30.14,NNE,21,8.0,11.0,48,0.00,,,0.00,VWS V14.01,2013-05-05 15:49:00,
2013-05-05 10:54:00,62.6,42.1,30.14,NW,310,6.0,14.0,47,0.00,,,0.00,VWS V14.01,2013-05-05 15:54:00,
2013-05-05 10:59:00,62.8,41.7,30.14,NNW,340,14.0,16.0,46,0.00,,,0.00,VWS V14.01,2013-05-05 15:59:00,
2013-05-05 11:04:00,63.0,41.9,30.14,North,360,11.0,12.0,46,0.00,,,0.00,VWS V14.01,2013-05-05 16:04:00,
2013-05-05 11:09:00,63.2,42.1,30.14,North,358,11.0,17.0,46,0.00,,,0.00,VWS V14.01,2013-05-05 16:09:00,
2013-05-05 11:14:00,63.2,42.1,30.14,NNW,338,13.0,14.0,46,0.00,,,0.00,VWS V14.01,2013-05-05 16:14:00,
2013-05-05 11:19:00,63.7,42.5,30.14,NW,317,7.0,13.0,46,0.00,,,0.00,VWS V14.01,2013-05-05 16:19:00,
2013-05-05 11:24:00,63.6,42.5,30.14,North,359,16.0,16.0,46,0.00,,,0.00,VWS V14.01,2013-05-05 16:24:00,
2013-05-05 11:29:00,63.8,42.1,30.13,NNW,329,17.0,17.0,45,0.00,,,0.00,VWS V14.01,2013-05-05 16:29:00,
2013-05-05 11:34:00,64.4,42.6,30.13,NW,325,6.0,14.0,45,0.00,,,0.00,VWS V14.01,2013-05-05 16:34:00,
2013-05-05 11:39:00,65.2,43.3,30.14,North,358,8.0,14.0,45,0.00,,,0.00,VWS V14.01,2013-05-05 16:39:00,
2013-05-05 11:44:00,65.7,43.2,30.13,West,274,1.0,15.0,44,0.00,,,0.00,VWS V14.01,2013-05-05 16:44:00,
2013-05-05 11:49:00,66.5,43.3,30.13,NW,317,11.0,15.0,43,0.00,,,0.00,VWS V14.01,2013-05-05 16:49:00,
2013-05-05 11:54:00,66.3,43.8,30.13,North,354,7.0,12.0,44,0.00,,,0.00,VWS V14.01,2013-05-05 16:54:00,
2013-05-05 11:59:00,66.4,43.2,30.13,NW,325,7.0,17.0,43,0.00,,,0.00,VWS V14.01,2013-05-05 16:59:00,
2013-05-05 12:04:00,66.1,43.6,30.13,NW,312,16.0,19.0,44,0.00,,,0.00,VWS V14.01,2013-05-05 17:04:00,
2013-05-05 12:09:00,66.0,44.7,30.13,North,357,11.0,11.0,46,0.00,,,0.00,VWS V14.01,2013-05-05 17:09:00,
2013-05-05 12:14:00,66.2,44.2,30.13,NW,324,8.0,18.0,45,0.00,,,0.00,VWS V14.01,2013-05-05 17:14:00,
2013-05-05 12:19:00,66.8,44.8,30.13,NNW,338,7.0,13.0,45,0.00,,,0.00,VWS V14.01,2013-05-05 17:19:00,
2013-05-05 12:24:00,66.7,44.1,30.13,NW,323,8.0,20.0,44,0.00,,,0.00,VWS V14.01,2013-05-05 17:24:00,
2013-05-05 12:29:00,66.7,44.7,30.12,NW,319,8.0,16.0,45,0.00,,,0.00,VWS V14.01,2013-05-05 17:29:00,
2013-05-05 12:34:00,67.3,44.7,30.12,NNW,334,13.0,18.0,44,0.00,,,0.00,VWS V14.01,2013-05-05 17:34:00,
2013-05-05 12:39:00,67.2,45.2,30.12,NNW,341,10.0,13.0,45,0.00,,,0.00,VWS V14.01,2013-05-05 17:39:00,
2013-05-05 12:44:00,67.4,44.8,30.12,NW,319,15.0,21.0,44,0.00,,,0.00,VWS V14.01,2013-05-05 17:44:00,
2013-05-05 12:49:00,67.5,44.8,30.12,North,356,8.0,15.0,44,0.00,,,0.00,VWS V14.01,2013-05-05 17:49:00,
2013-05-05 12:54:00,68.2,45.5,30.11,NW,304,6.0,11.0,44,0.00,,,0.00,VWS V14.01,2013-05-05 17:54:00,
2013-05-05 12:59:00,67.6,44.3,30.11,NW,307,6.0,14.0,43,0.00,,,0.00,VWS V14.01,2013-05-05 17:59:00,
2013-05-05 13:04:00,67.3,44.7,30.11,WNW,288,5.0,15.0,44,0.00,,,0.00,VWS V14.01,2013-05-05 18:04:00,
2013-05-05 13:09:00,68.0,45.3,30.10,NNW,336,12.0,15.0,44,0.00,,,0.00,VWS V14.01,2013-05-05 18:09:00,
2013-05-05 13:14:00,68.5,45.8,30.10,NW,317,14.0,18.0,44,0.00,,,0.00,VWS V14.01,2013-05-05 18:14:00,
2013-05-05 13:19:00,69.1,45.7,30.10,NW,307,11.0,12.0,43,0.00,,,0.00,VWS V14.01,2013-05-05 18:19:00,
2013-05-05 13:24:00,69.1,45.1,30.10,WNW,301,5.0,17.0,42,0.00,,,0.00,VWS V14.01,2013-05-05 18:24:00,
2013-05-05 13:29:00,69.1,46.9,30.09,NW,315,13.0,18.0,45,0.00,,,0.00,VWS V14.01,2013-05-05 18:29:00,
2013-05-05 13:34:00,70.1,46.6,30.09,NW,320,5.0,10.0,43,0.00,,,0.00,VWS V14.01,2013-05-05 18:34:00,
2013-05-05 13:38:00,69.7,45.6,30.09,NW,323,11.0,18.0,42,0.00,,,0.00,VWS V14.01,2013-05-05 18:38:00,
2013-05-05 13:43:00,69.1,45.1,30.09,NW,320,4.0,20.0,42,0.00,,,0.00,VWS V14.01,2013-05-05 18:43:00,
2013-05-05 13:48:00,69.7,46.2,30.08,NNW,333,11.0,17.0,43,0.00,,,0.00,VWS V14.01,2013-05-05 18:48:00,
2013-05-05 13:53:00,70.0,45.9,30.08,NNW,345,5.0,14.0,42,0.00,,,0.00,VWS V14.01,2013-05-05 18:53:00,
2013-05-05 13:58:00,69.5,46.0,30.08,NW,317,7.0,18.0,43,0.00,,,0.00,VWS V14.01,2013-05-05 18:58:00,
2013-05-05 14:03:00,70.2,47.3,30.08,WNW,289,13.0,17.0,44,0.00,,,0.00,VWS V14.01,2013-05-05 19:03:00,
2013-05-05 14:08:00,70.1,46.6,30.08,NNW,331,3.0,15.0,43,0.00,,,0.00,VWS V14.01,2013-05-05 19:08:00,
2013-05-05 14:13:00,70.9,48.5,30.07,NW,320,9.0,9.0,45,0.00,,,0.00,VWS V14.01,2013-05-05 19:13:00,
2013-05-05 14:18:00,70.9,46.0,30.07,NNW,331,3.0,16.0,41,0.00,,,0.00,VWS V14.01,2013-05-05 19:18:00,
2013-05-05 14:23:00,71.0,47.4,30.07,NW,323,8.0,15.0,43,0.00,,,0.00,VWS V14.01,2013-05-05 19:23:00,
2013-05-05 14:28:00,71.6,46.0,30.07,North,350,9.0,16.0,40,0.00,,,0.00,VWS V14.01,2013-05-05 19:28:00,
2013-05-05 14:33:00,70.6,46.4,30.07,NW,316,5.0,18.0,42,0.00,,,0.00,VWS V14.01,2013-05-05 19:33:00,
2013-05-05 14:38:00,71.5,47.2,30.07,NNW,341,10.0,16.0,42,0.00,,,0.00,VWS V14.01,2013-05-05 19:38:00,
2013-05-05 14:43:00,71.4,46.5,30.06,North,356,12.0,18.0,41,0.00,,,0.00,VWS V14.01,2013-05-05 19:43:00,
2013-05-05 14:48:00,71.0,46.1,30.06,NNW,338,4.0,18.0,41,0.00,,,0.00,VWS V14.01,2013-05-05 19:48:00,
2013-05-05 14:53:00,71.6,47.9,30.06,WNW,292,16.0,16.0,43,0.00,,,0.00,VWS V14.01,2013-05-05 19:53:00,
2013-05-05 14:58:00,71.4,46.5,30.06,NNW,345,5.0,11.0,41,0.00,,,0.00,VWS V14.01,2013-05-05 19:58:00,
2013-05-05 15:03:00,71.6,47.3,30.06,NW,323,12.0,16.0,42,0.00,,,0.00,VWS V14.01,2013-05-05 20:03:00,
2013-05-05 15:08:00,72.8,47.1,30.06,NW,319,8.0,14.0,40,0.00,,,0.00,VWS V14.01,2013-05-05 20:08:00,
2013-05-05 15:13:00,72.6,46.9,30.05,NW,325,6.0,11.0,40,0.00,,,0.00,VWS V14.01,2013-05-05 20:13:00,
2013-05-05 15:18:00,73.1,47.4,30.05,NNW,340,10.0,16.0,40,0.00,,,0.00,VWS V14.01,2013-05-05 20:18:00,
2013-05-05 15:23:00,72.5,46.8,30.05,NW,318,11.0,17.0,40,0.00,,,0.00,VWS V14.01,2013-05-05 20:23:00,
2013-05-05 15:28:00,71.9,47.0,30.05,NW,319,7.0,13.0,41,0.00,,,0.00,VWS V14.01,2013-05-05 20:28:00,
2013-05-05 15:33:00,73.0,47.3,30.04,WNW,300,4.0,12.0,40,0.00,,,0.00,VWS V14.01,2013-05-05 20:33:00,
2013-05-05 15:38:00,72.6,46.9,30.04,NNW,332,8.0,14.0,40,0.00,,,0.00,VWS V14.01,2013-05-05 20:38:00,
2013-05-05 15:43:00,73.3,47.5,30.03,NW,319,2.0,14.0,40,0.00,,,0.00,VWS V14.01,2013-05-05 20:43:00,
2013-05-05 15:48:00,73.4,47.0,30.03,NNW,330,10.0,21.0,39,0.00,,,0.00,VWS V14.01,2013-05-05 20:48:00,
2013-05-05 15:53:00,73.7,47.9,30.03,NNW,329,2.0,7.0,40,0.00,,,0.00,VWS V14.01,2013-05-05 20:53:00,
2013-05-05 15:58:00,74.2,47.7,30.03,NNW,329,10.0,13.0,39,0.00,,,0.00,VWS V14.01,2013-05-05 20:58:00,
2013-05-05 16:03:00,74.0,47.5,30.03,NNW,337,4.0,11.0,39,0.00,,,0.00,VWS V14.01,2013-05-05 21:03:00,
2013-05-05 16:08:00,74.6,47.3,30.02,NNW,330,12.0,22.0,38,0.00,,,0.00,VWS V14.01,2013-05-05 21:08:00,
2013-05-05 16:13:00,73.7,47.2,30.02,NNW,329,8.0,21.0,39,0.00,,,0.00,VWS V14.01,2013-05-05 21:13:00,
2013-05-05 16:18:00,73.7,47.2,30.02,NW,320,13.0,15.0,39,0.00,,,0.00,VWS V14.01,2013-05-05 21:18:00,
2013-05-05 16:23:00,74.2,47.7,30.02,WNW,296,9.0,16.0,39,0.00,,,0.00,VWS V14.01,2013-05-05 21:23:00,
2013-05-05 16:28:00,73.7,47.2,30.01,NNW,345,1.0,10.0,39,0.00,,,0.00,VWS V14.01,2013-05-05 21:28:00,
2013-05-05 16:33:00,74.1,46.9,30.01,NW,323,11.0,13.0,38,0.00,,,0.00,VWS V14.01,2013-05-05 21:33:00,
2013-05-05 16:38:00,74.5,46.5,30.01,NW,318,5.0,13.0,37,0.00,,,0.00,VWS V14.01,2013-05-05 21:38:00,
2013-05-05 16:43:00,74.8,47.5,30.01,NNW,347,11.0,12.0,38,0.00,,,0.00,VWS V14.01,2013-05-05 21:43:00,
2013-05-05 16:48:00,74.2,47.0,30.01,NNW,338,0.0,10.0,38,0.00,,,0.00,VWS V14.01,2013-05-05 21:48:00,
2013-05-05 16:53:00,74.1,47.6,30.01,South,181,0.0,8.0,39,0.00,,,0.00,VWS V14.01,2013-05-05 21:53:00,
2013-05-05 16:58:00,74.3,46.4,30.00,NNE,25,2.0,10.0,37,0.00,,,0.00,VWS V14.01,2013-05-05 21:58:00,
2013-05-05 17:03:00,74.7,47.4,30.01,NW,326,8.0,13.0,38,0.00,,,0.00,VWS V14.01,2013-05-05 22:03:00,
2013-05-05 17:08:00,74.9,47.6,30.00,North,350,1.0,11.0,38,0.00,,,0.00,VWS V14.01,2013-05-05 22:08:00,
2013-05-05 17:13:00,75.2,47.9,30.00,WNW,287,5.0,13.0,38,0.00,,,0.00,VWS V14.01,2013-05-05 22:13:00,
2013-05-05 17:18:00,75.1,47.1,30.00,NW,323,3.0,9.0,37,0.00,,,0.00,VWS V14.01,2013-05-05 22:18:00,
2013-05-05 17:23:00,74.9,47.6,30.00,NW,326,5.0,13.0,38,0.00,,,0.00,VWS V14.01,2013-05-05 22:23:00,
2013-05-05 17:28:00,75.0,47.7,30.00,NW,304,7.0,12.0,38,0.00,,,0.00,VWS V14.01,2013-05-05 22:28:00,
2013-05-05 17:33:00,74.8,46.8,30.00,NW,320,8.0,12.0,37,0.00,,,0.00,VWS V14.01,2013-05-05 22:33:00,
2013-05-05 17:38:00,74.8,47.5,30.00,WNW,298,6.0,9.0,38,0.00,,,0.00,VWS V14.01,2013-05-05 22:38:00,
2013-05-05 17:43:00,75.0,47.0,30.01,NNW,343,10.0,12.0,37,0.00,,,0.00,VWS V14.01,2013-05-05 22:43:00,
2013-05-05 17:48:00,74.8,47.5,30.00,NW,320,1.0,11.0,38,0.00,,,0.00,VWS V14.01,2013-05-05 22:48:00,
2013-05-05 17:53:00,75.4,48.0,30.00,NW,322,6.0,8.0,38,0.00,,,0.00,VWS V14.01,2013-05-05 22:53:00,
2013-05-05 17:58:00,75.0,47.0,30.00,NNW,331,3.0,10.0,37,0.00,,,0.00,VWS V14.01,2013-05-05 22:58:00,
2013-05-05 18:03:00,75.1,47.1,30.00,NW,316,4.0,4.0,37,0.00,,,0.00,VWS V14.01,2013-05-05 23:03:00,
2013-05-05 18:08:00,75.3,47.3,30.00,NNW,343,6.0,13.0,37,0.00,,,0.00,VWS V14.01,2013-05-05 23:08:00,
2013-05-05 18:13:00,75.3,46.5,30.00,North,356,8.0,10.0,36,0.00,,,0.00,VWS V14.01,2013-05-05 23:13:00,
2013-05-05 18:18:00,75.1,46.3,30.00,NNW,328,11.0,17.0,36,0.00,,,0.00,VWS V14.01,2013-05-05 23:18:00,
2013-05-05 18:23:00,74.9,46.9,30.00,NNW,342,6.0,8.0,37,0.00,,,0.00,VWS V14.01,2013-05-05 23:23:00,
2013-05-05 18:28:00,74.8,46.8,29.99,NW,318,5.0,10.0,37,0.00,,,0.00,VWS V14.01,2013-05-05 23:28:00,
2013-05-05 18:33:00,74.8,46.1,30.00,NNW,336,8.0,12.0,36,0.00,,,0.00,VWS V14.01,2013-05-05 23:33:00,
2013-05-05 18:38:00,74.7,46.0,30.00,North,352,2.0,12.0,36,0.00,,,0.00,VWS V14.01,2013-05-05 23:38:00,
2013-05-05 18:43:00,74.8,46.1,30.00,NNW,329,5.0,8.0,36,0.00,,,0.00,VWS V14.01,2013-05-05 23:43:00,
2013-05-05 18:48:00,74.8,46.1,30.00,NNW,346,9.0,11.0,36,0.00,,,0.00,VWS V14.01,2013-05-05 23:48:00,
2013-05-05 18:53:00,74.9,46.9,30.00,NW,306,8.0,11.0,37,0.00,,,0.00,VWS V14.01,2013-05-05 23:53:00,
2013-05-05 18:58:00,74.7,46.7,30.00,NNW,329,8.0,10.0,37,0.00,,,0.00,VWS V14.01,2013-05-05 23:58:00,
2013-05-05 19:03:00,74.7,46.7,30.00,NNW,330,4.0,8.0,37,0.00,,,0.00,VWS V14.01,2013-05-06 00:03:00,
2013-05-05 19:08:00,74.7,46.0,30.00,NNW,329,4.0,9.0,36,0.00,,,0.00,VWS V14.01,2013-05-06 00:08:00,
2013-05-05 19:13:00,74.5,45.8,30.00,NNW,348,4.0,8.0,36,0.00,,,0.00,VWS V14.01,2013-05-06 00:13:00,
2013-05-05 19:18:00,74.3,45.7,30.00,NNE,14,5.0,7.0,36,0.00,,,0.00,VWS V14.01,2013-05-06 00:18:00,
2013-05-05 19:23:00,74.1,45.5,30.00,NE,41,5.0,9.0,36,0.00,,,0.00,VWS V14.01,2013-05-06 00:23:00,
2013-05-05 19:28:00,73.9,45.3,30.00,NNE,23,4.0,6.0,36,0.00,,,0.00,VWS V14.01,2013-05-06 00:28:00,
2013-05-05 19:33:00,73.7,45.8,30.00,North,360,5.0,6.0,37,0.00,,,0.00,VWS V14.01,2013-05-06 00:33:00,
2013-05-05 19:38:00,73.4,44.8,30.00,North,352,4.0,8.0,36,0.00,,,0.00,VWS V14.01,2013-05-06 00:38:00,
2013-05-05 19:42:00,73.1,45.3,30.00,North,8,5.0,10.0,37,0.00,,,0.00,VWS V14.01,2013-05-06 00:42:00,
2013-05-05 19:47:00,72.8,45.0,30.00,North,350,8.0,8.0,37,0.00,,,0.00,VWS V14.01,2013-05-06 00:47:00,
2013-05-05 19:52:00,72.5,44.8,30.00,North,11,8.0,9.0,37,0.00,,,0.00,VWS V14.01,2013-05-06 00:52:00,
2013-05-05 19:57:00,72.2,44.5,30.00,NNE,28,5.0,9.0,37,0.00,,,0.00,VWS V14.01,2013-05-06 00:57:00,
2013-05-05 20:02:00,72.0,44.3,30.00,NNE,32,4.0,7.0,37,0.00,,,0.00,VWS V14.01,2013-05-06 01:02:00,
2013-05-05 20:07:00,71.7,44.1,30.00,NE,36,3.0,4.0,37,0.00,,,0.00,VWS V14.01,2013-05-06 01:07:00,
2013-05-05 20:12:00,71.2,44.3,30.00,NE,40,3.0,3.0,38,0.00,,,0.00,VWS V14.01,2013-05-06 01:12:00,
2013-05-05 20:17:00,70.7,43.9,30.00,NNE,33,2.0,3.0,38,0.00,,,0.00,VWS V14.01,2013-05-06 01:17:00,
2013-05-05 20:22:00,70.3,44.2,30.00,NNE,33,2.0,4.0,39,0.00,,,0.00,VWS V14.01,2013-05-06 01:22:00,
2013-05-05 20:27:00,69.9,43.8,30.00,NNE,29,2.0,4.0,39,0.00,,,0.00,VWS V14.01,2013-05-06 01:27:00,
2013-05-05 20:32:00,69.6,43.6,30.01,NNE,25,2.0,2.0,39,0.00,,,0.00,VWS V14.01,2013-05-06 01:32:00,
2013-05-05 20:37:00,69.3,44.0,30.01,NNE,23,1.0,2.0,40,0.00,,,0.00,VWS V14.01,2013-05-06 01:37:00,
2013-05-05 20:42:00,68.8,43.5,30.01,NNE,23,2.0,2.0,40,0.00,,,0.00,VWS V14.01,2013-05-06 01:42:00,
2013-05-05 20:47:00,68.6,44.0,30.01,NNE,22,3.0,3.0,41,0.00,,,0.00,VWS V14.01,2013-05-06 01:47:00,
2013-05-05 20:52:00,68.3,43.7,30.01,NNE,26,2.0,3.0,41,0.00,,,0.00,VWS V14.01,2013-05-06 01:52:00,
2013-05-05 20:57:00,68.0,43.5,30.02,NNE,25,1.0,2.0,41,0.00,,,0.00,VWS V14.01,2013-05-06 01:57:00,
2013-05-05 21:02:00,67.6,43.7,30.02,NNE,25,1.0,2.0,42,0.00,,,0.00,VWS V14.01,2013-05-06 02:02:00,
2013-05-05 21:07:00,67.2,44.0,30.02,NE,35,2.0,2.0,43,0.00,,,0.00,VWS V14.01,2013-05-06 02:07:00,
2013-05-05 21:12:00,66.8,43.6,30.02,NE,35,1.0,2.0,43,0.00,,,0.00,VWS V14.01,2013-05-06 02:12:00,
2013-05-05 21:17:00,66.7,43.5,30.02,NNE,30,2.0,3.0,43,0.00,,,0.00,VWS V14.01,2013-05-06 02:17:00,
2013-05-05 21:22:00,66.5,43.9,30.02,NNE,31,1.0,2.0,44,0.00,,,0.00,VWS V14.01,2013-05-06 02:22:00,
2013-05-05 21:27:00,66.4,43.8,30.02,NNE,32,2.0,3.0,44,0.00,,,0.00,VWS V14.01,2013-05-06 02:27:00,
2013-05-05 21:32:00,66.4,43.8,30.02,NNE,30,2.0,2.0,44,0.00,,,0.00,VWS V14.01,2013-05-06 02:32:00,
2013-05-05 21:37:00,66.3,43.8,30.03,NE,35,1.0,3.0,44,0.00,,,0.00,VWS V14.01,2013-05-06 02:37:00,
2013-05-05 21:42:00,65.6,43.7,30.03,NE,37,1.0,3.0,45,0.00,,,0.00,VWS V14.01,2013-05-06 02:42:00,
2013-05-05 21:47:00,65.0,44.3,30.03,North,8,1.0,2.0,47,0.00,,,0.00,VWS V14.01,2013-05-06 02:47:00,
2013-05-05 21:52:00,64.5,43.8,30.04,North,8,0.0,0.0,47,0.00,,,0.00,VWS V14.01,2013-05-06 02:52:00,
2013-05-05 21:57:00,63.1,43.7,30.04,North,8,0.0,1.0,49,0.00,,,0.00,VWS V14.01,2013-05-06 02:57:00,
2013-05-05 22:02:00,62.5,44.2,30.04,North,8,0.0,1.0,51,0.00,,,0.00,VWS V14.01,2013-05-06 03:02:00,
2013-05-05 22:07:00,62.6,44.2,30.04,North,8,0.0,1.0,51,0.00,,,0.00,VWS V14.01,2013-05-06 03:07:00,
2013-05-05 22:12:00,62.4,44.0,30.04,North,8,0.0,0.0,51,0.00,,,0.00,VWS V14.01,2013-05-06 03:12:00,
2013-05-05 22:17:00,61.5,44.2,30.05,NNE,14,1.0,1.0,53,0.00,,,0.00,VWS V14.01,2013-05-06 03:17:00,
2013-05-05 22:22:00,61.0,44.2,30.05,NNE,23,0.0,1.0,54,0.00,,,0.00,VWS V14.01,2013-05-06 03:22:00,
2013-05-05 22:27:00,60.9,44.2,30.05,NNE,23,0.0,1.0,54,0.00,,,0.00,VWS V14.01,2013-05-06 03:27:00,
2013-05-05 22:32:00,60.7,44.5,30.05,NNE,24,0.0,1.0,55,0.00,,,0.00,VWS V14.01,2013-05-06 03:32:00,
2013-05-05 22:37:00,60.7,44.5,30.05,NNE,23,0.0,1.0,55,0.00,,,0.00,VWS V14.01,2013-05-06 03:37:00,
2013-05-05 22:42:00,60.8,44.5,30.05,NNE,26,0.0,1.0,55,0.00,,,0.00,VWS V14.01,2013-05-06 03:42:00,
2013-05-05 22:47:00,60.8,44.5,30.05,NNE,26,0.0,1.0,55,0.00,,,0.00,VWS V14.01,2013-05-06 03:47:00,
2013-05-05 22:52:00,60.4,44.7,30.05,NNE,28,1.0,1.0,56,0.00,,,0.00,VWS V14.01,2013-05-06 03:52:00,
2013-05-05 22:57:00,59.8,44.5,30.05,NNE,27,0.0,1.0,57,0.00,,,0.00,VWS V14.01,2013-05-06 03:57:00,
2013-05-05 23:01:00,59.2,44.9,30.06,NNE,27,0.0,0.0,59,0.00,,,0.00,VWS V14.01,2013-05-06 04:01:00,
2013-05-05 23:06:00,58.3,44.5,30.06,NNE,27,0.0,0.0,60,0.00,,,0.00,VWS V14.01,2013-05-06 04:06:00,
2013-05-05 23:11:00,57.5,44.6,30.06,North,357,0.0,1.0,62,0.00,,,0.00,VWS V14.01,2013-05-06 04:11:00,
2013-05-05 23:16:00,57.4,44.1,30.06,North,357,0.0,0.0,61,0.00,,,0.00,VWS V14.01,2013-05-06 04:16:00,
2013-05-05 23:21:00,57.2,44.3,30.06,North,357,0.0,0.0,62,0.00,,,0.00,VWS V14.01,2013-05-06 04:21:00,
2013-05-05 23:26:00,56.6,44.2,30.06,North,357,0.0,0.0,63,0.00,,,0.00,VWS V14.01,2013-05-06 04:26:00,
2013-05-05 23:31:00,55.9,44.3,30.06,North,357,0.0,0.0,65,0.00,,,0.00,VWS V14.01,2013-05-06 04:31:00,
2013-05-05 23:36:00,55.7,44.5,30.07,North,357,0.0,0.0,66,0.00,,,0.00,VWS V14.01,2013-05-06 04:36:00,
2013-05-05 23:41:00,55.2,44.8,30.07,North,357,0.0,0.0,68,0.00,,,0.00,VWS V14.01,2013-05-06 04:41:00,
2013-05-05 23:46:00,54.9,44.5,30.07,North,357,0.0,0.0,68,0.00,,,0.00,VWS V14.01,2013-05-06 04:46:00,
2013-05-05 23:51:00,54.4,44.5,30.07,North,357,0.0,0.0,69,0.00,,,0.00,VWS V14.01,2013-05-06 04:51:00,
2013-05-05 23:56:00,53.8,44.3,30.07,North,357,0.0,0.0,70,0.00,,,0.00,VWS V14.01,2013-05-06 04:56:00,